Racecast

Quenton Saunders

Fossil Ridge (CO) · 12 · FRONT RANGECO D5A5A · Compare head to head

Athlete rating 127.2 2026 TF season
Best race 130.6 XC
Races 51
Seasons 6 2021 — 2026

RankedNation #4202·CO #168·CO D5A #104·FRONT RANGE #31·Team #13 ?

Rating scale ?
Speed rating — all races

Cross Country

XC speed rating

2025 XC 125.7

Fossil Ridge (CO) · Grade 12

Date Meet Event Result Place Rating Difficulty PR/SR Flags
2025-12-06 John Hunt Cross Country Park 5000m 16:16 182nd · 2nd on team 124.7 +0.000 ★CR CSR
2025-11-22 Toka Sticks Golf Course 5000m 16:09.2 25th · 1st on team 127.4 +0.009 ★CR CSR
2025-11-01 Norris Penrose Event Center 5000m 16:31.7 69th · 2nd on team 130.1 +0.067 ★CR CSR RSR
2025-10-10 Spring Canyon Park 5000m 16:40.2 16th · 6th on team 125.5 +0.037 ★CR CSR
2025-10-03 Northwest Open Space 5000m 17:04.8 20th · 3rd on team 123.3 +0.020 ★CR CSR
2025-09-26 North Lake Park 5000m 17:12.1 6th · 3rd on team 123.8 +0.041 ★CR CSR
2025-09-13 Heritage High School 5000m 15:46.1 46th · 2nd on team 129.5 -0.001 ★PR ★CR SR CSR RSR
2025-08-30 Fort Collins High School 5000m 16:32 19th · 4th on team 125.9 +0.023 ★CR SR CSR RSR
2025-08-23 Spring Canyon Park 5000m 17:12 10th · 5th on team 120.9 +0.037 CR SR CSR RSR

2024 XC 122.5

Fossil Ridge (CO) · Grade 11

Date Meet Event Result Place Rating Difficulty PR/SR Flags
2024-12-07 John Hunt Cross Country Park 5000m 17:01.5 259th · 7th on team 119.2 +0.000 CR CSR
2024-11-23 Toka Sticks Golf Course 5000m 16:58.8 74th · 8th on team 121.9 +0.009 CR CSR
2024-11-02 Norris Penrose Event Center 5000m 17:20.4 110th · 7th on team 125.0 +0.067 CR CSR
2024-10-24 Spring Canyon Park 5000m 17:50 42nd · 8th on team 119.5 +0.037 CR CSR
2024-10-04 Northwest Open Space 5000m 17:24.5 75th · 6th on team 120.6 +0.020 CR CSR
2024-09-21 Lyons Middle/High School 5000m 17:26.8 60th · 6th on team 122.7 +0.046 ★CR CSR
2024-09-14 Heritage High School 5000m 16:26.7 96th · 5th on team 126.1 -0.001 PR CR SR CSR RSR
2024-08-31 Fort Collins High School 5000m 16:58 28th · 6th on team 124.6 +0.023 PR CR SR CSR RSR

2023 XC 113.7

Fossil Ridge (CO) · Grade 10

Date Meet Event Result Place Rating Difficulty PR/SR Flags
2023-10-19 Fairgrounds Park 5000m 19:02 46th · 9th on team 113.6 +0.049 ★CR CSR
2023-09-22 Clement Park 5000m 18:00.6 4th · 1st on team 117.8 +0.030 ★CR CSR
2023-09-09 Heritage High School 5000m 17:25.5 24th · 1st on team 119.4 -0.001 PR CR SR CSR RSR
2023-09-03 Little America Golf Course 5000m 19:51.1 120th · 12th on team 110.3 +0.065 ★CR CSR
2023-08-26 Fort Collins High School 5000m 18:18 46th · 4th on team 113.2 +0.023 PR CR SR CSR RSR
2023-08-19 Spring Canyon Park 5000m 19:59 8th · 2nd on team 108.2 +0.037 CR SR CSR RSR

2022 XC 107.7

Fossil Ridge (CO) · Grade 9

Date Meet Event Result Place Rating Difficulty PR/SR Flags
2022-10-12 Thornton High School 5000m 18:29.1 12th · 2nd on team 112.8 +0.009 PR ★CR SR CSR RSR
2022-09-30 North Lake Park 5000m 19:11 60th · 7th on team 112.3 +0.041 CR CSR RSR
2022-09-17 Lyons Middle/High School 5000m 20:03.6 65th · 4th on team 108.4 +0.046 CR CSR RSR
2022-09-10 Heritage High School 5000m 18:51 26th · 2nd on team 106.8 -0.001 PR CR SR CSR RSR
2022-09-02 Julia deKoevend Park 5000m 20:38.7 52nd · 7th on team 106.2 +0.054 ★CR CSR RSR
2022-08-27 Fort Collins High School 5000m 20:26 19th · 2nd on team 104.1 +0.023 PR CR SR CSR RSR
2022-08-20 Spring Canyon Park 5000m 20:44 28th · 8th on team 103.3 +0.037 PR CR SR CSR RSR

2021 XC 111.7

Preston (ID) · Grade 8

Date Meet Event Result Place Rating Difficulty PR/SR Flags
2021-10-02 Spring Canyon Park 3218m 11:53.9 9th · 1st on team 130.6 +0.019 ★PR ★CR ★R SR CSR RSR
2021-09-02 Lincoln Middle School 2414m 12:24 8th · 4th on team 92.7 ★PR ★CR R SR CSR RSR

Track & Field

TF speed rating

2026 TF 125.2

Fossil Ridge (CO) · Grade 12

Date Meet Event Result Place Rating Difficulty PR/SR Flags
2026-05-09 Teddy's Last Chance 1600m 4:34.25 5th · 1st on team 125.3 -0.014
2026-04-29 Longs Peak and Northern Conference Championships 1600m 4:32.93 6th · 4th on team 125.9 -0.014
2026-04-29 Longs Peak and Northern Conference Championships 800m 2:04.35 14th · 4th on team 123.7 -0.014
2026-04-23 Stutler Twilight 1600m 4:30.92 20th · 2nd on team 126.9 -0.014 ★PR SR
2026-04-18 Randall Hess Roughrider Invitational 1600m 4:33.62 15th · 2nd on team 125.6 -0.014 PR SR
2026-04-10 Pomona Invite 800m 1:59.15 11th · 2nd on team 129.5 -0.011 ★PR SR RSR
2026-04-10 The Pomona Invitational 800m 1:59.15 11th · 2nd on team 129.5 -0.011
2026-04-08 Randy Yaussi PSD Meet 800m 2:02.34 2nd · 2nd on team 126.1 -0.012
2026-03-28 Niwot Invitational 800m 2:01.01 15th · 2nd on team 127.2 -0.014 PR SR RSR
2026-03-21 Runners Roost of Fort Collins Invitational 800m 2:04.4 6th · 1st on team 124.0 -0.012 PR SR RSR
2026-03-07 John Martin Early Bird Invite 1600m 5:04.94 26th · 8th on team 113.1 -0.011 SR RSR

2025 TF 118.4

Fossil Ridge (CO) · Grade 11

Date Meet Event Result Place Rating Difficulty PR/SR Flags
2025-04-05 Altitude Running Invite 800m 2:10.12 25th · 2nd on team 118.4 -0.012 PR SR RSR

2024 TF 115.8

Fossil Ridge (CO) · Grade 10

Date Meet Event Result Place Rating Difficulty PR/SR Flags
2024-04-29 Randall Hess Roughrider Invitational 1600m 5:03.55 39th · 2nd on team 112.9 -0.014 PR SR
2024-04-04 Altitude Running Invitational 3200m 10:29.79 9th · 3rd on team 118.8 -0.009 ★PR SR RSR
2024-03-23 Broomfield Shootout 3200m 10:42.74 25th · 3rd on team 115.6 -0.012 PR SR RSR

2023 TF 111.1

Fossil Ridge (CO) · Grade 9

Date Meet Event Result Place Rating Difficulty PR/SR Flags
2023-03-31 Jack Christensen Invitational 3200m 11:01.02 2nd · 1st on team 113.7 -0.013 PR SR RSR
2023-03-11 Coyote/Panther Invitational 1600m 5:16.95 31st · 4th on team 108.5 -0.012 PR SR RSR

2022 TF 124.1

Preston (ID) · Grade 8

Date Meet Event Result Place Rating Difficulty PR/SR Flags
2022-05-17 Wes Crist Middle School Championships 800m 2:32.51 14th · 1st on team 123.3 -0.009 PR SR RSR
2022-05-17 Wes Crist Middle School Championships 1600m 5:30.1 12th · 2nd on team 124.9 -0.009 PR SR RSR